Time;durP1;ratioP1;P1;durP2;ratioP2;P2;SDS_P1;SDS_P2;PMS_P1;PMS_P2;Temp;Humidity;BMP_temperature;BMP_pressure;BME280_temperature;BME280_humidity;BME280_pressure;Samples;Min_cycle;Max_cycle;Signal;HPM_P1;HPM_P2
2021/09/15 00:00:13;;;;;;;;;;;;;;;20.13;60.28;99861.94;4411798;32;19970;-93
2021/09/15 00:02:38;;;;;;;;;;;;;;;20.13;60.28;99869.84;4411699;32;20032;-93
2021/09/15 00:05:04;;;;;;;;;;;;;;;20.14;60.28;99868.91;4411352;32;20369;-94
2021/09/15 00:07:30;;;;;;;;;;;;;;;20.08;60.29;99864.03;4411571;32;20002;-94
2021/09/15 00:09:55;;;;;;;;;;;;;;;20.10;60.29;99862.13;4411087;32;19996;-94
2021/09/15 00:12:20;;;;;;;;;;;;;;;20.07;60.27;99862.31;4411340;32;19986;-93
2021/09/15 00:14:45;;;;;;;;;;;;;;;20.08;60.27;99864.87;4411354;32;19989;-94
2021/09/15 00:17:10;;;;;;;;;;;;;;;19.99;60.27;99868.16;4413456;32;19986;-94
2021/09/15 00:19:36;;;;;;;;;;;;;;;19.93;60.26;99863.31;4414751;32;30181;-94
2021/09/15 00:22:01;;;;;;;;;;;;;;;19.96;60.27;99868.38;4413541;32;19986;-94
2021/09/15 00:24:27;;;;;;;;;;;;;;;19.98;60.27;99866.47;4413397;32;19989;-94
2021/09/15 00:26:52;;;;;;;;;;;;;;;19.90;60.27;99864.34;4413772;32;20001;-96
2021/09/15 00:29:17;;;;;;;;;;;;;;;19.97;60.27;99861.28;4413661;32;19978;-94
2021/09/15 00:31:52;;;;;;;;;;;;;;;19.81;60.26;99862.31;4421047;32;19972;-94
2021/09/15 00:34:17;;;;;;;;;;;;;;;19.85;60.27;99869.09;4437707;32;20069;-91
2021/09/15 00:36:42;;;;;;;;;;;;;;;19.71;60.26;99869.19;4411583;32;19993;-92
2021/09/15 00:39:07;;;;;;;;;;;;;;;19.61;60.25;99865.47;4427318;32;20018;-93
2021/09/15 00:41:33;;;;;;;;;;;;;;;19.57;60.25;99862.19;4414155;32;20126;-93
2021/09/15 00:43:59;;;;;;;;;;;;;;;19.60;60.25;99869.91;4413289;32;20342;-95
2021/09/15 00:46:24;;;;;;;;;;;;;;;19.58;60.25;99876.25;4413728;32;20013;-94
2021/09/15 00:48:49;;;;;;;;;;;;;;;19.57;60.26;99875.41;4413432;32;19982;-94
2021/09/15 00:54:18;;;;;;;;;;;;;;;19.52;60.25;99869.56;4452196;26;20372;-95
2021/09/15 00:56:44;;;;;;;;;;;;;;;19.39;60.24;99875.75;4426425;32;20017;-96
2021/09/15 00:59:09;;;;;;;;;;;;;;;19.36;60.24;99875.94;4426850;32;19969;-93
2021/09/15 01:01:34;;;;;;;;;;;;;;;19.38;60.24;99874.06;4441929;32;20035;-96
2021/09/15 01:04:03;;;;;;;;;;;;;;;19.38;60.24;99874.06;4440570;32;20060;-93
2021/09/15 01:06:28;;;;;;;;;;;;;;;19.37;60.24;99870.56;4426599;32;19993;-93
2021/09/15 01:08:54;;;;;;;;;;;;;;;19.41;60.24;99874.72;4425451;32;20355;-94
2021/09/15 01:11:19;;;;;;;;;;;;;;;19.47;60.25;99873.47;4424051;32;24586;-91
2021/09/15 01:13:44;;;;;;;;;;;;;;;19.44;60.24;99873.66;4423883;32;19990;-90
2021/09/15 01:16:09;;;;;;;;;;;;;;;19.38;60.24;99879.31;4423573;32;20057;-89
2021/09/15 01:18:34;;;;;;;;;;;;;;;19.50;60.25;99889.09;4423437;32;20035;-91
2021/09/15 01:21:00;;;;;;;;;;;;;;;19.55;60.26;99882.59;4425033;32;19992;-94
2021/09/15 01:23:25;;;;;;;;;;;;;;;19.48;60.25;99876.00;4439977;32;20380;-93
2021/09/15 01:25:51;;;;;;;;;;;;;;;19.41;60.25;99881.78;4426049;32;20045;-93
2021/09/15 01:28:16;;;;;;;;;;;;;;;19.40;60.25;99877.44;4425622;32;20034;-93
2021/09/15 01:30:41;;;;;;;;;;;;;;;19.37;60.24;99877.63;4425546;32;20019;-92
2021/09/15 01:33:11;;;;;;;;;;;;;;;19.27;60.24;99878.25;4427182;32;20362;-92
2021/09/15 01:35:36;;;;;;;;;;;;;;;19.23;60.24;99868.84;4428134;32;20002;-92
2021/09/15 01:38:01;;;;;;;;;;;;;;;19.09;60.23;99878.59;4411228;32;21862;-91
2021/09/15 01:40:27;;;;;;;;;;;;;;;19.08;60.23;99875.12;4411705;32;20005;-92
2021/09/15 01:42:53;;;;;;;;;;;;;;;19.06;60.22;99873.53;4424664;32;20025;-93
2021/09/15 01:45:18;;;;;;;;;;;;;;;19.06;60.22;99876.16;4424344;32;20598;-92
2021/09/15 01:47:43;;;;;;;;;;;;;;;19.06;60.22;99870.91;4424985;32;20341;-93
2021/09/15 01:50:09;;;;;;;;;;;;;;;19.01;60.22;99873.84;4412120;32;19993;-93
2021/09/15 01:52:34;;;;;;;;;;;;;;;18.98;60.22;99864.34;4425105;32;19978;-95
2021/09/15 01:54:59;;;;;;;;;;;;;;;18.94;60.22;99873.41;4425922;32;20009;-94
2021/09/15 01:57:24;;;;;;;;;;;;;;;18.94;60.22;99875.19;4413287;32;26120;-92
2021/09/15 01:59:50;;;;;;;;;;;;;;;18.92;60.21;99879.69;4423233;32;22558;-91
2021/09/15 02:02:15;;;;;;;;;;;;;;;18.85;60.22;99870.47;4423393;32;29872;-93
2021/09/15 02:04:40;;;;;;;;;;;;;;;18.92;60.22;99872.63;4423606;32;20001;-91
2021/09/15 02:07:06;;;;;;;;;;;;;;;18.91;60.21;99876.19;4425648;32;19985;-92
2021/09/15 02:09:31;;;;;;;;;;;;;;;18.99;60.21;99870.47;4426156;32;20012;-94
2021/09/15 02:11:56;;;;;;;;;;;;;;;18.91;60.22;99875.34;4426896;32;19993;-92
2021/09/15 02:14:21;;;;;;;;;;;;;;;18.92;60.21;99871.78;4413247;32;25513;-93
2021/09/15 02:16:47;;;;;;;;;;;;;;;18.93;60.22;99873.50;4415629;32;20006;-92
2021/09/15 02:19:12;;;;;;;;;;;;;;;19.04;60.22;99862.25;4425817;32;20317;-92
2021/09/15 02:21:37;;;;;;;;;;;;;;;19.01;60.23;99868.56;4425516;32;27551;-92
2021/09/15 02:24:02;;;;;;;;;;;;;;;18.90;60.22;99871.03;4441067;32;19981;-94
2021/09/15 02:26:31;;;;;;;;;;;;;;;18.93;60.22;99873.50;4441369;32;20019;-93
2021/09/15 02:28:56;;;;;;;;;;;;;;;18.99;60.21;99878.37;4414822;32;19996;-94
2021/09/15 02:31:21;;;;;;;;;;;;;;;18.93;60.22;99871.72;4426899;32;20096;-94
2021/09/15 02:33:46;;;;;;;;;;;;;;;18.88;60.22;99870.28;4427644;32;20000;-94
2021/09/15 02:36:11;;;;;;;;;;;;;;;18.85;60.21;99871.34;4439569;32;19982;-93
2021/09/15 02:38:37;;;;;;;;;;;;;;;18.86;60.21;99869.53;4428824;32;21200;-94
2021/09/15 02:41:02;;;;;;;;;;;;;;;18.83;60.21;99861.81;4440494;32;19999;-94
2021/09/15 02:43:27;;;;;;;;;;;;;;;18.93;60.22;99865.59;4440381;32;20023;-94
2021/09/15 02:45:53;;;;;;;;;;;;;;;18.88;60.21;99871.13;4440415;32;19969;-95
2021/09/15 02:48:18;;;;;;;;;;;;;;;18.80;60.21;99865.50;4426944;32;19966;-93
2021/09/15 02:50:43;;;;;;;;;;;;;;;18.73;60.20;99869.50;4425751;32;32305;-94
2021/09/15 02:53:09;;;;;;;;;;;;;;;18.78;60.21;99874.47;4426216;32;20029;-93
2021/09/15 02:55:34;;;;;;;;;;;;;;;18.74;60.20;99870.34;4414881;32;19985;-96
2021/09/15 02:58:00;;;;;;;;;;;;;;;18.79;60.21;99877.00;4441312;32;20354;-96
2021/09/15 03:00:25;;;;;;;;;;;;;;;18.84;60.21;99871.44;4426446;32;26845;-93
2021/09/15 03:02:50;;;;;;;;;;;;;;;18.86;60.21;99880.09;4426266;32;20032;-93
2021/09/15 03:05:15;;;;;;;;;;;;;;;18.84;60.21;99876.72;4426186;32;19990;-93
2021/09/15 03:07:41;;;;;;;;;;;;;;;18.72;60.20;99872.22;4425644;32;19982;-93
2021/09/15 03:10:06;;;;;;;;;;;;;;;18.69;60.20;99867.97;4412989;32;20000;-93
2021/09/15 03:12:31;;;;;;;;;;;;;;;18.72;60.21;99865.16;4427209;32;20001;-90
2021/09/15 03:14:57;;;;;;;;;;;;;;;18.63;60.21;99871.00;4426679;32;19985;-91
2021/09/15 03:17:22;;;;;;;;;;;;;;;18.65;60.20;99872.59;4425094;32;20020;-92
2021/09/15 03:19:47;;;;;;;;;;;;;;;18.69;60.20;99875.88;4425100;32;19977;-92
2021/09/15 03:22:12;;;;;;;;;;;;;;;18.72;60.20;99872.22;4424952;32;22523;-92
2021/09/15 03:24:37;;;;;;;;;;;;;;;18.66;60.20;99870.81;4425001;32;20551;-92
2021/09/15 03:27:03;;;;;;;;;;;;;;;18.79;60.21;99876.16;4424775;32;20420;-91
2021/09/15 03:29:32;;;;;;;;;;;;;;;18.72;60.20;99875.72;4425091;32;20881;-91
2021/09/15 03:31:57;;;;;;;;;;;;;;;18.78;60.22;99869.19;4412012;32;20012;-90
2021/09/15 03:34:22;;;;;;;;;;;;;;;18.75;60.20;99874.66;4413193;32;19982;-90
2021/09/15 03:36:47;;;;;;;;;;;;;;;18.82;60.21;99875.97;4423993;32;21773;-91
2021/09/15 03:39:14;;;;;;;;;;;;;;;18.73;60.20;99871.28;4423968;32;25420;-90
2021/09/15 03:41:39;;;;;;;;;;;;;;;18.79;60.21;99862.97;4424792;32;20017;-90
2021/09/15 03:44:04;;;;;;;;;;;;;;;18.66;60.20;99865.53;4424444;32;20004;-89
2021/09/15 03:46:30;;;;;;;;;;;;;;;18.60;60.19;99866.75;4438581;32;19973;-89
2021/09/15 03:48:55;;;;;;;;;;;;;;;18.60;60.19;99872.00;4424026;32;23454;-89
2021/09/15 03:51:20;;;;;;;;;;;;;;;18.72;60.20;99866.97;4424855;32;20009;-92
2021/09/15 03:53:45;;;;;;;;;;;;;;;18.60;60.19;99861.47;4425641;32;20502;-93
2021/09/15 03:56:10;;;;;;;;;;;;;;;18.66;60.20;99863.75;4427873;32;20015;-92
2021/09/15 03:58:36;;;;;;;;;;;;;;;18.75;60.20;99864.13;4425915;32;20100;-94
2021/09/15 04:01:01;;;;;;;;;;;;;;;18.60;60.19;99865.91;4414940;32;19993;-95
2021/09/15 04:03:26;;;;;;;;;;;;;;;18.65;60.20;99855.94;4413828;32;20065;-95
2021/09/15 04:05:51;;;;;;;;;;;;;;;18.63;60.20;99856.03;4428557;32;19977;-96
2021/09/15 04:08:17;;;;;;;;;;;;;;;18.63;60.20;99861.31;4428025;32;19989;-96
2021/09/15 04:10:42;;;;;;;;;;;;;;;18.58;60.20;99858.09;4415616;32;19993;-96
2021/09/15 04:13:07;;;;;;;;;;;;;;;18.43;60.19;99861.66;4428886;32;20017;-96
2021/09/15 04:15:32;;;;;;;;;;;;;;;18.46;60.19;99858.03;4430778;32;20009;-96
2021/09/15 04:17:58;;;;;;;;;;;;;;;18.46;60.18;99860.66;4427886;32;19977;-96
2021/09/15 04:20:23;;;;;;;;;;;;;;;18.38;60.19;99861.97;4427935;32;20012;-91
2021/09/15 04:22:48;;;;;;;;;;;;;;;18.31;60.19;99862.44;4430069;32;20015;-96
2021/09/15 04:33:29;;;;;;;;;;;;;;;18.40;60.19;99846.91;4443123;32;19991;-93
2021/09/15 04:35:54;;;;;;;;;;;;;;;18.36;60.18;99857.75;4426903;32;20311;-94
2021/09/15 04:38:19;;;;;;;;;;;;;;;18.40;60.18;99849.53;4426934;32;22697;-96
2021/09/15 04:40:45;;;;;;;;;;;;;;;18.42;60.19;99852.06;4427769;32;20037;-96
2021/09/15 04:43:10;;;;;;;;;;;;;;;18.57;60.20;99850.28;4427402;32;26807;-96
2021/09/15 04:45:36;;;;;;;;;;;;;;;18.61;60.21;99851.75;4430009;32;20315;-96
2021/09/15 04:48:03;;;;;;;;;;;;;;;18.48;60.19;99851.72;4428503;32;20681;-96
2021/09/15 04:50:28;;;;;;;;;;;;;;;18.62;60.20;99854.34;4430159;32;19997;-96
2021/09/15 04:52:54;;;;;;;;;;;;;;;18.48;60.19;99854.34;4433144;32;20053;-96
2021/09/15 04:55:19;;;;;;;;;;;;;;;18.73;60.20;99856.31;4429850;32;20015;-95
2021/09/15 04:57:44;;;;;;;;;;;;;;;18.78;60.21;99853.38;4428619;32;19989;-96
2021/09/15 05:00:10;;;;;;;;;;;;;;;18.99;60.21;99858.13;4429656;32;19990;-96
2021/09/15 05:02:35;;;;;;;;;;;;;;;19.00;60.21;99854.53;4431810;32;20000;-95
2021/09/15 05:05:00;;;;;;;;;;;;;;;19.05;60.22;99854.22;4428648;32;19989;-96
2021/09/15 05:07:26;;;;;;;;;;;;;;;19.21;60.23;99857.56;4428201;32;20274;-96
2021/09/15 05:09:51;;;;;;;;;;;;;;;19.25;60.23;99856.41;4428326;32;19998;-96
2021/09/15 05:12:16;;;;;;;;;;;;;;;19.35;60.24;99864.53;4427393;32;19973;-96
2021/09/15 05:14:41;;;;;;;;;;;;;;;19.36;60.23;99865.38;4427443;32;19992;-96
2021/09/15 05:17:08;;;;;;;;;;;;;;;19.41;60.24;99858.88;4427022;32;20025;-96
2021/09/15 05:19:33;;;;;;;;;;;;;;;19.57;60.25;99856.06;4427057;32;19993;-96
2021/09/15 05:21:58;;;;;;;;;;;;;;;19.67;60.25;99858.97;4427496;32;20011;-96
2021/09/15 05:24:24;;;;;;;;;;;;;;;19.93;60.27;99856.22;4428213;32;19992;-96
2021/09/15 05:26:49;;;;;;;;;;;;;;;19.98;60.27;99862.97;4426246;32;20023;-95
2021/09/15 05:29:14;;;;;;;;;;;;;;;20.15;60.27;99860.88;4425674;32;20009;-94
2021/09/15 05:31:39;;;;;;;;;;;;;;;20.38;60.28;99861.06;4425052;32;26075;-95
2021/09/15 05:34:05;;;;;;;;;;;;;;;20.44;60.30;99860.62;4425305;32;19985;-94
2021/09/15 05:36:30;;;;;;;;;;;;;;;20.54;60.30;99857.22;4425774;32;20012;-94
2021/09/15 05:38:55;;;;;;;;;;;;;;;20.65;60.30;99851.19;4426609;32;20059;-94
2021/09/15 05:41:20;;;;;;;;;;;;;;;20.86;60.32;99851.44;4424783;32;19985;-94
2021/09/15 05:43:45;;;;;;;;;;;;;;;20.94;60.32;99841.13;4412564;32;20021;-91
2021/09/15 05:46:11;;;;;;;;;;;;;;;20.96;60.32;99841.00;4425131;32;20056;-92
2021/09/15 05:48:36;;;;;;;;;;;;;;;20.97;60.32;99845.34;4424726;32;20023;-94
2021/09/15 05:51:01;;;;;;;;;;;;;;;20.98;60.32;99842.56;4424125;32;19989;-94
2021/09/15 05:53:26;;;;;;;;;;;;;;;21.12;60.33;99852.16;4424240;32;19989;-95
2021/09/15 05:55:52;;;;;;;;;;;;;;;21.19;60.33;99849.88;4425156;32;19985;-94
2021/09/15 05:58:18;;;;;;;;;;;;;;;21.29;60.33;99851.75;4424556;32;20012;-94
2021/09/15 06:00:43;;;;;;;;;;;;;;;21.40;60.33;99846.53;4427010;32;19996;-94
2021/09/15 06:03:09;;;;;;;;;;;;;;;21.58;60.35;99839.00;4411788;32;19990;-95
2021/09/15 06:05:34;;;;;;;;;;;;;;;21.63;60.35;99842.13;4425033;32;20358;-94
2021/09/15 06:07:59;;;;;;;;;;;;;;;21.75;60.36;99838.53;4425209;32;19997;-95
2021/09/15 06:10:25;;;;;;;;;;;;;;;21.82;60.36;99838.06;4424371;32;20020;-95
2021/09/15 06:12:50;;;;;;;;;;;;;;;22.02;60.37;99837.38;4424158;32;21656;-95
2021/09/15 06:15:15;;;;;;;;;;;;;;;22.04;60.38;99840.78;4424348;32;20035;-96
2021/09/15 06:17:40;;;;;;;;;;;;;;;22.14;60.38;99838.25;4424141;32;20001;-95
2021/09/15 06:20:06;;;;;;;;;;;;;;;22.22;60.38;99849.09;4426681;32;19985;-94
2021/09/15 06:22:31;;;;;;;;;;;;;;;22.36;60.39;99844.38;4424668;32;20004;-94
2021/09/15 06:24:58;;;;;;;;;;;;;;;22.32;60.38;99842.94;4423814;32;20021;-94
2021/09/15 06:27:23;;;;;;;;;;;;;;;22.47;60.40;99846.16;4424717;32;20046;-96
2021/09/15 06:29:48;;;;;;;;;;;;;;;22.52;60.40;99848.47;4424137;32;19986;-94
2021/09/15 06:32:14;;;;;;;;;;;;;;;22.79;60.41;99848.06;4424367;32;20004;-95
2021/09/15 06:34:39;;;;;;;;;;;;;;;22.82;60.42;99847.84;4423894;32;20007;-95
2021/09/15 06:37:04;;;;;;;;;;;;;;;22.95;60.42;99841.44;4424175;32;20480;-96
2021/09/15 06:39:30;;;;;;;;;;;;;;;23.05;60.43;99835.34;4423884;32;19993;-94
2021/09/15 06:41:55;;;;;;;;;;;;;;;23.06;60.43;99840.53;4424724;32;19981;-95
2021/09/15 06:44:20;;;;;;;;;;;;;;;23.16;60.44;99838.78;4424168;32;20416;-96
2021/09/15 06:46:45;;;;;;;;;;;;;;;23.24;60.44;99831.06;4424121;32;20024;-96
2021/09/15 06:49:10;;;;;;;;;;;;;;;23.22;60.44;99837.47;4423897;32;24425;-96
2021/09/15 06:51:36;;;;;;;;;;;;;;;23.30;60.44;99827.03;4424217;32;20333;-95
2021/09/15 06:54:01;;;;;;;;;;;;;;;23.52;60.45;99826.91;4425897;32;19993;-95
2021/09/15 06:56:26;;;;;;;;;;;;;;;23.61;60.46;99827.13;4428589;32;20039;-95
2021/09/15 06:58:51;;;;;;;;;;;;;;;23.69;60.47;99832.66;4426178;32;20005;-94
2021/09/15 07:01:17;;;;;;;;;;;;;;;23.85;60.46;99828.53;4413153;32;22483;-96
2021/09/15 07:03:42;;;;;;;;;;;;;;;23.82;60.47;99827.97;4413603;32;20389;-96
2021/09/15 07:06:07;;;;;;;;;;;;;;;23.71;60.46;99825.41;4426522;32;20330;-96
2021/09/15 07:08:33;;;;;;;;;;;;;;;23.70;60.47;99826.37;4426611;32;19985;-96
2021/09/15 07:10:58;;;;;;;;;;;;;;;23.80;60.46;99832.56;4413427;32;20236;-95
2021/09/15 07:13:24;;;;;;;;;;;;;;;23.91;60.47;99827.19;4426343;32;20005;-95
2021/09/15 07:15:49;;;;;;;;;;;;;;;24.12;60.48;99829.78;4426353;32;20357;-95
2021/09/15 07:18:14;;;;;;;;;;;;;;;24.17;60.49;99832.91;4428209;32;19993;-96
2021/09/15 07:20:41;;;;;;;;;;;;;;;24.30;60.49;99828.22;4426494;32;19969;-94
2021/09/15 07:23:06;;;;;;;;;;;;;;;24.55;60.51;99829.56;4426241;32;20080;-95
2021/09/15 07:25:31;;;;;;;;;;;;;;;24.55;60.50;99839.34;4425918;32;19986;-95
2021/09/15 07:27:57;;;;;;;;;;;;;;;24.57;60.51;99829.41;4426748;32;20019;-96
2021/09/15 07:30:22;;;;;;;;;;;;;;;24.50;60.50;99834.44;4426733;32;20024;-95
2021/09/15 07:32:48;;;;;;;;;;;;;;;24.50;60.50;99826.47;4426275;32;20016;-96
2021/09/15 07:35:13;;;;;;;;;;;;;;;24.39;60.50;99826.59;4426259;32;25326;-96
2021/09/15 07:37:38;;;;;;;;;;;;;;;24.53;60.51;99836.84;4426721;32;19985;-96
2021/09/15 07:40:04;;;;;;;;;;;;;;;24.57;60.51;99835.56;4413623;32;19974;-95
2021/09/15 07:42:30;;;;;;;;;;;;;;;24.49;60.51;99832.75;4426085;32;19997;-95
2021/09/15 07:44:55;;;;;;;;;;;;;;;24.60;60.52;99837.97;4425679;32;20282;-96
2021/09/15 07:47:20;;;;;;;;;;;;;;;24.74;60.51;99844.72;4413344;32;20307;-96
2021/09/15 07:49:45;;;;;;;;;;;;;;;24.86;60.52;99846.31;4413420;32;20010;-96
2021/09/15 07:52:11;;;;;;;;;;;;;;;24.93;60.53;99844.78;4425903;32;20039;-96
2021/09/15 07:54:36;;;;;;;;;;;;;;;24.90;60.53;99849.53;4425780;32;20001;-96
2021/09/15 07:57:01;;;;;;;;;;;;;;;25.01;60.53;99844.09;4426187;32;20020;-96
2021/09/15 07:59:27;;;;;;;;;;;;;;;25.18;60.54;99838.09;4426602;32;19996;-95
2021/09/15 08:01:52;;;;;;;;;;;;;;;25.27;60.55;99847.06;4427754;32;20538;-96
2021/09/15 08:04:17;;;;;;;;;;;;;;;25.20;60.54;99840.63;4428280;32;20026;-96
2021/09/15 08:06:42;;;;;;;;;;;;;;;25.28;60.55;99846.91;4427048;32;19993;-96
2021/09/15 08:09:08;;;;;;;;;;;;;;;25.54;60.55;99833.84;4427603;32;20343;-96
2021/09/15 08:11:33;;;;;;;;;;;;;;;25.59;60.56;99842.28;4414783;32;23616;-96
2021/09/15 08:13:59;;;;;;;;;;;;;;;25.66;60.57;99839.88;4416800;32;20035;-96
2021/09/15 08:16:24;;;;;;;;;;;;;;;25.68;60.57;99838.78;4427343;32;19973;-96
2021/09/15 08:18:49;;;;;;;;;;;;;;;25.90;60.57;99837.59;4427443;32;19995;-96
2021/09/15 08:21:14;;;;;;;;;;;;;;;26.07;60.59;99844.00;4427147;32;21495;-96
2021/09/15 08:23:40;;;;;;;;;;;;;;;26.17;60.60;99831.47;4426354;32;20310;-96
2021/09/15 08:26:05;;;;;;;;;;;;;;;26.30;60.60;99831.97;4427313;32;19989;-96
2021/09/15 08:28:36;;;;;;;;;;;;;;;26.42;60.61;99829.97;4426992;32;20404;-96
2021/09/15 08:31:01;;;;;;;;;;;;;;;26.61;60.61;99837.03;4427175;32;19993;-96
2021/09/15 08:33:26;;;;;;;;;;;;;;;26.59;60.62;99829.19;4429679;32;19999;-96
2021/09/15 08:35:51;;;;;;;;;;;;;;;26.67;60.62;99827.59;4427276;32;20017;-95
2021/09/15 08:38:17;;;;;;;;;;;;;;;26.80;60.63;99833.41;4426078;32;20282;-96
2021/09/15 08:40:42;;;;;;;;;;;;;;;26.75;60.62;99833.87;4426361;32;19985;-96
2021/09/15 08:43:07;;;;;;;;;;;;;;;26.87;60.63;99829.97;4426545;32;20005;-94
2021/09/15 08:45:33;;;;;;;;;;;;;;;27.07;60.64;99829.88;4426085;32;20012;-96
2021/09/15 08:48:00;;;;;;;;;;;;;;;27.09;60.65;99828.72;4426291;32;20043;-95
2021/09/15 08:50:25;;;;;;;;;;;;;;;27.37;60.66;99833.97;4426276;32;19969;-95
2021/09/15 08:52:50;;;;;;;;;;;;;;;27.47;60.66;99835.59;4425737;32;20251;-96
2021/09/15 08:55:15;;;;;;;;;;;;;;;27.59;60.67;99825.47;4428077;32;20022;-96
2021/09/15 08:57:41;;;;;;;;;;;;;;;27.70;60.67;99827.94;4425237;32;20015;-95
2021/09/15 09:00:07;;;;;;;;;;;;;;;27.99;60.69;99830.28;4425677;32;20040;-95
2021/09/15 09:02:39;;;;;;;;;;;;;;;28.21;60.69;99826.22;4425889;32;20001;-96
2021/09/15 09:05:04;;;;;;;;;;;;;;;28.37;60.71;99826.28;4425890;32;20659;-95
2021/09/15 09:07:30;;;;;;;;;;;;;;;28.48;60.71;99819.81;4425701;32;19973;-96
2021/09/15 09:09:56;;;;;;;;;;;;;;;28.59;60.71;99816.00;4425123;32;19998;-95
2021/09/15 09:12:22;;;;;;;;;;;;;;;28.73;60.72;99816.22;4426065;32;19993;-95
2021/09/15 09:14:47;;;;;;;;;;;;;;;28.86;60.73;99815.75;4425498;32;19982;-95
2021/09/15 09:17:25;;;;;;;;;;;;;;;28.98;60.74;99817.13;4414406;32;20041;-96
2021/09/15 09:19:51;;;;;;;;;;;;;;;28.77;60.72;99824.75;4426608;32;19993;-94
2021/09/15 09:22:16;;;;;;;;;;;;;;;29.04;60.74;99819.13;4434201;32;19992;-91
2021/09/15 09:24:45;;;;;;;;;;;;;;;29.18;60.75;99823.00;4439682;32;21557;-93
2021/09/15 09:27:10;;;;;;;;;;;;;;;29.10;60.75;99816.78;4426102;32;19953;-92
2021/09/15 09:29:36;;;;;;;;;;;;;;;29.23;60.75;99814.47;4439365;32;20011;-93
2021/09/15 09:32:05;;;;;;;;;;;;;;;29.36;60.76;99808.59;4424408;32;20338;-92
2021/09/15 09:34:38;;;;;;;;;;;;;;;29.47;60.76;99811.81;4424157;32;20342;-93
2021/09/15 09:37:04;;;;;;;;;;;;;;;29.58;60.77;99798.06;4424066;32;19982;-91
2021/09/15 09:39:33;;;;;;;;;;;;;;;29.60;60.77;99803.25;4423815;32;19989;-91
2021/09/15 09:41:59;;;;;;;;;;;;;;;29.79;60.77;99796.66;4424006;32;20021;-91
2021/09/15 09:44:27;;;;;;;;;;;;;;;30.03;60.79;99798.44;4423545;32;20165;-90
2021/09/15 09:46:53;;;;;;;;;;;;;;;29.97;60.80;99788.37;4437748;32;19996;-90
2021/09/15 09:49:18;;;;;;;;;;;;;;;29.88;60.78;99787.59;4437436;32;19989;-89
2021/09/15 09:51:44;;;;;;;;;;;;;;;30.06;60.80;99788.25;4438130;32;19998;-89
2021/09/15 09:54:25;;;;;;;;;;;;;;;30.25;60.80;99782.44;4423463;32;19996;-88
2021/09/15 09:56:51;;;;;;;;;;;;;;;30.40;60.81;99774.47;4437315;32;19988;-87
2021/09/15 09:59:17;;;;;;;;;;;;;;;30.66;60.82;99774.19;4423177;32;20037;-87
2021/09/15 10:01:49;;;;;;;;;;;;;;;30.74;60.83;99770.59;4423364;32;20305;-88
2021/09/15 10:04:15;;;;;;;;;;;;;;;30.77;60.83;99767.59;4423053;32;20031;-88
2021/09/15 10:06:40;;;;;;;;;;;;;;;30.77;60.83;99764.91;4422963;32;20002;-89
2021/09/15 10:09:06;;;;;;;;;;;;;;;30.94;60.84;99771.81;4423188;32;19981;-88
2021/09/15 10:11:31;;;;;;;;;;;;;;;30.77;60.83;99760.38;4425470;32;20040;-89
2021/09/15 10:13:57;;;;;;;;;;;;;;;30.97;60.84;99766.06;4422966;32;19984;-89
2021/09/15 10:16:23;;;;;;;;;;;;;;;31.14;60.84;99762.25;4422987;32;20007;-89
2021/09/15 10:18:52;;;;;;;;;;;;;;;31.30;60.86;99763.16;4409674;32;20005;-89
2021/09/15 10:21:17;;;;;;;;;;;;;;;31.31;60.85;99748.69;4423020;32;20002;-89
2021/09/15 10:23:49;;;;;;;;;;;;;;;31.49;60.87;99757.25;4422279;32;31925;-88
2021/09/15 10:26:30;;;;;;;;;;;;;;;31.53;60.87;99745.09;4422839;32;20051;-88
2021/09/15 10:29:31;;;;;;;;;;;;;;;31.19;60.86;99750.97;4424488;32;20386;-87
2021/09/15 10:32:02;;;;;;;;;;;;;;;31.49;60.87;99751.88;4376827;32;20323;-87
2021/09/15 10:34:40;;;;;;;;;;;;;;;31.46;60.86;99762.97;4428138;32;20365;-86
2021/09/15 10:37:05;;;;;;;;;;;;;;;31.65;60.88;99761.62;4439338;32;19977;-86
2021/09/15 10:39:30;;;;;;;;;;;;;;;31.72;60.88;99746.44;4425006;32;20028;-86
2021/09/15 10:41:55;;;;;;;;;;;;;;;31.70;60.88;99741.19;4439133;32;19996;-86
2021/09/15 10:44:21;;;;;;;;;;;;;;;31.88;60.89;99737.34;4424721;32;19996;-86
2021/09/15 10:46:47;;;;;;;;;;;;;;;31.91;60.89;99736.94;4439024;32;19996;-86
2021/09/15 10:49:15;;;;;;;;;;;;;;;31.86;60.90;99732.13;4424641;32;20041;-86
2021/09/15 10:51:41;;;;;;;;;;;;;;;32.05;60.90;99726.19;4424699;32;20013;-86
2021/09/15 10:54:26;;;;;;;;;;;;;;;32.07;60.90;99720.59;4438254;32;22599;-86
2021/09/15 10:57:10;;;;;;;;;;;;;;;32.10;60.90;99724.78;4425761;32;20009;-86
2021/09/15 10:59:46;;;;;;;;;;;;;;;32.24;60.91;99722.06;4440052;32;19973;-86
2021/09/15 11:02:21;;;;;;;;;;;;;;;32.47;60.92;99713.84;4426633;32;20008;-86
2021/09/15 11:04:46;;;;;;;;;;;;;;;32.57;60.92;99700.88;4441867;32;19989;-87
2021/09/15 11:07:27;;;;;;;;;;;;;;;32.63;60.93;99701.97;4426313;32;20030;-86
2021/09/15 11:09:59;;;;;;;;;;;;;;;32.78;60.94;99704.59;4424931;32;20002;-86
2021/09/15 11:12:44;;;;;;;;;;;;;;;32.70;60.93;99702.88;4439228;32;19997;-86
2021/09/15 11:15:25;;;;;;;;;;;;;;;32.73;60.93;99696.28;4425125;32;19974;-86
2021/09/15 11:17:50;;;;;;;;;;;;;;;32.82;60.93;99689.75;4424984;32;20336;-86
2021/09/15 11:20:19;;;;;;;;;;;;;;;32.93;60.94;99681.97;4439101;32;20004;-86
2021/09/15 11:22:45;;;;;;;;;;;;;;;32.96;60.94;99678.88;4439134;32;20008;-86
2021/09/15 11:25:10;;;;;;;;;;;;;;;33.04;60.95;99680.59;4425000;32;19970;-86
2021/09/15 11:27:35;;;;;;;;;;;;;;;32.98;60.94;99681.37;4425851;32;26338;-86
2021/09/15 11:30:00;;;;;;;;;;;;;;;33.11;60.95;99669.84;4423832;32;29807;-87
2021/09/15 11:32:25;;;;;;;;;;;;;;;33.04;60.95;99669.81;4438280;32;22480;-86
2021/09/15 11:34:52;;;;;;;;;;;;;;;33.33;60.97;99659.84;4424295;32;20879;-87
2021/09/15 11:37:21;;;;;;;;;;;;;;;33.30;60.96;99649.44;4424543;32;20000;-86
2021/09/15 11:39:52;;;;;;;;;;;;;;;33.47;60.96;99646.25;4424030;32;19985;-84
2021/09/15 11:42:20;;;;;;;;;;;;;;;33.54;60.97;99648.97;4438562;32;19981;-86
2021/09/15 11:44:45;;;;;;;;;;;;;;;33.62;60.97;99635.34;4424545;32;19992;-86
2021/09/15 11:47:10;;;;;;;;;;;;;;;33.71;60.99;99642.22;4423803;32;35390;-85
2021/09/15 11:49:35;;;;;;;;;;;;;;;33.65;60.98;99629.53;4423709;32;23538;-85
2021/09/15 11:52:01;;;;;;;;;;;;;;;33.74;60.99;99622.09;4438570;32;20056;-85
2021/09/15 11:54:27;;;;;;;;;;;;;;;33.84;60.99;99625.28;4438475;32;20510;-85
2021/09/15 11:56:54;;;;;;;;;;;;;;;33.68;60.98;99621.03;4424622;32;19981;-85
2021/09/15 11:59:19;;;;;;;;;;;;;;;33.61;60.97;99625.56;4424465;32;20532;-85
2021/09/15 12:01:44;;;;;;;;;;;;;;;33.91;60.99;99614.50;4438693;32;20275;-86
2021/09/15 12:04:09;;;;;;;;;;;;;;;34.08;61.00;99605.81;4438378;32;20586;-86
2021/09/15 12:06:35;;;;;;;;;;;;;;;34.05;61.00;99597.28;4424431;32;20294;-86
2021/09/15 12:09:00;;;;;;;;;;;;;;;34.09;61.00;99595.84;4425187;32;20258;-86
2021/09/15 12:11:32;;;;;;;;;;;;;;;34.13;61.01;99589.81;4411063;32;20365;-86
2021/09/15 12:13:57;;;;;;;;;;;;;;;34.22;61.01;99585.06;4424241;32;19973;-87
2021/09/15 12:16:30;;;;;;;;;;;;;;;34.43;61.01;99578.66;4424553;32;20057;-87
2021/09/15 12:18:55;;;;;;;;;;;;;;;34.39;61.02;99563.91;4424254;32;19985;-87
2021/09/15 12:21:21;;;;;;;;;;;;;;;34.29;61.02;99566.97;4438285;32;20020;-87
2021/09/15 12:23:46;;;;;;;;;;;;;;;34.32;61.01;99566.59;4438373;32;19984;-87
2021/09/15 12:26:12;;;;;;;;;;;;;;;34.28;61.00;99562.59;4438276;32;20298;-87
2021/09/15 12:28:37;;;;;;;;;;;;;;;34.21;61.01;99558.25;4423899;32;19985;-87
2021/09/15 12:31:04;;;;;;;;;;;;;;;33.98;61.00;99564.03;4424054;32;20017;-87
2021/09/15 12:33:33;;;;;;;;;;;;;;;34.04;61.00;99557.78;4424152;32;20057;-87
2021/09/15 12:36:12;;;;;;;;;;;;;;;34.02;61.00;99557.16;4424034;32;19981;-87
2021/09/15 12:38:46;;;;;;;;;;;;;;;33.94;60.99;99554.69;4423951;32;19989;-87
2021/09/15 12:41:11;;;;;;;;;;;;;;;34.04;61.00;99549.69;4423913;32;20006;-86
2021/09/15 12:43:36;;;;;;;;;;;;;;;34.10;61.00;99548.91;4411250;32;20321;-87
2021/09/15 12:46:02;;;;;;;;;;;;;;;34.31;61.01;99543.31;4437461;32;24004;-87
2021/09/15 12:48:27;;;;;;;;;;;;;;;34.40;61.01;99544.78;4423947;32;20256;-87
2021/09/15 12:50:52;;;;;;;;;;;;;;;34.45;61.03;99536.03;4436573;32;20318;-87
2021/09/15 12:53:18;;;;;;;;;;;;;;;34.44;61.03;99535.22;4437963;32;20273;-87